Time;durP1;ratioP1;P1;durP2;ratioP2;P2;SDS_P1;SDS_P2;PMS_P1;PMS_P2;Temp;Humidity;BMP_temperature;BMP_pressure;BME280_temperature;BME280_humidity;BME280_pressure;Samples;Min_cycle;Max_cycle;Signal;HPM_P1;HPM_P2
2021/06/08 00:00:54;;;;;;;6.17;5.67;;;20.30;65.20;;;;;;5071101;28;20989;-49
2021/06/08 00:03:20;;;;;;;7.93;6.60;;;20.30;65.50;;;;;;5071130;28;20687;-49
2021/06/08 00:05:48;;;;;;;8.00;7.20;;;20.30;65.80;;;;;;5071624;28;20500;-49
2021/06/08 00:08:14;;;;;;;6.03;5.50;;;20.30;65.90;;;;;;5072330;28;20930;-49
2021/06/08 00:10:40;;;;;;;7.10;6.40;;;20.20;66.40;;;;;;5071358;28;20510;-49
2021/06/08 00:13:06;;;;;;;6.97;6.33;;;20.20;66.40;;;;;;5071076;28;20810;-48
2021/06/08 00:15:32;;;;;;;8.63;6.43;;;20.20;66.50;;;;;;5071012;28;20440;-48
2021/06/08 00:17:59;;;;;;;8.47;6.50;;;20.10;66.80;;;;;;5070876;28;20449;-48
2021/06/08 00:20:25;;;;;;;6.03;5.63;;;20.10;66.90;;;;;;5070648;28;20961;-50
2021/06/08 00:22:53;;;;;;;7.47;6.77;;;20.10;67.00;;;;;;5070954;28;20934;-49
2021/06/08 00:25:19;;;;;;;6.80;6.20;;;20.00;67.20;;;;;;5070949;28;20433;-49
2021/06/08 00:27:45;;;;;;;7.03;6.43;;;20.00;67.50;;;;;;5070789;28;20436;-49
2021/06/08 00:30:12;;;;;;;6.60;6.00;;;20.00;67.70;;;;;;5070338;28;20452;-49
2021/06/08 00:32:38;;;;;;;7.33;6.63;;;19.90;67.90;;;;;;5070953;28;20900;-49
2021/06/08 00:35:05;;;;;;;7.30;6.53;;;19.90;67.90;;;;;;5070914;28;20437;-48
2021/06/08 00:37:31;;;;;;;7.30;6.70;;;19.90;68.20;;;;;;5070750;28;20433;-49
2021/06/08 00:39:59;;;;;;;7.17;6.57;;;19.90;69.10;;;;;;5070308;28;20459;-48
2021/06/08 00:42:30;;;;;;;8.97;6.40;;;19.80;68.60;;;;;;5070732;28;20441;-48
2021/06/08 00:44:56;;;;;;;9.80;7.10;;;19.80;68.70;;;;;;5070949;28;20789;-50
2021/06/08 00:47:22;;;;;;;7.57;6.87;;;19.70;68.80;;;;;;5070711;28;20930;-48
2021/06/08 00:49:48;;;;;;;7.73;6.20;;;19.70;69.00;;;;;;5070034;28;21002;-48
2021/06/08 00:52:16;;;;;;;6.73;6.13;;;19.70;69.00;;;;;;5070626;28;20441;-48
2021/06/08 00:54:42;;;;;;;8.07;7.10;;;19.70;69.40;;;;;;5074164;28;20429;-48
2021/06/08 00:57:10;;;;;;;8.20;7.40;;;19.70;69.30;;;;;;5074333;28;20440;-48
2021/06/08 00:59:36;;;;;;;8.33;6.30;;;19.60;69.30;;;;;;5073776;28;20450;-49
2021/06/08 01:02:03;;;;;;;8.50;6.77;;;19.60;69.40;;;;;;5074828;28;20433;-48
2021/06/08 01:04:30;;;;;;;8.27;6.37;;;19.60;69.30;;;;;;5074860;28;20426;-48
2021/06/08 01:06:56;;;;;;;8.50;6.57;;;19.60;70.20;;;;;;5074805;28;20448;-48
2021/06/08 01:09:22;;;;;;;6.93;6.30;;;19.50;69.50;;;;;;5074251;28;20436;-48
2021/06/08 01:11:48;;;;;;;7.30;6.70;;;19.50;69.50;;;;;;5074563;28;20443;-48
2021/06/08 01:14:16;;;;;;;6.80;5.80;;;19.50;69.50;;;;;;5073153;28;20469;-50
2021/06/08 01:16:42;;;;;;;12.43;6.70;;;19.50;69.70;;;;;;5074520;28;20521;-49
2021/06/08 01:19:08;;;;;;;7.43;6.73;;;19.40;69.80;;;;;;5074003;28;20517;-49
2021/06/08 01:21:36;;;;;;;7.60;6.80;;;19.30;69.90;;;;;;5074683;28;20505;-49
2021/06/08 01:24:04;;;;;;;8.70;7.80;;;19.30;70.00;;;;;;5074725;28;20433;-49
2021/06/08 01:26:31;;;;;;;7.33;6.57;;;19.40;70.30;;;;;;5074340;28;20792;-49
2021/06/08 01:28:58;;;;;;;8.80;7.13;;;19.40;70.40;;;;;;5072837;28;21026;-49
2021/06/08 01:31:27;;;;;;;7.50;6.57;;;19.40;70.40;;;;;;5074294;28;20448;-49
2021/06/08 01:33:54;;;;;;;7.40;6.80;;;19.40;70.50;;;;;;5074234;28;20480;-49
2021/06/08 01:36:21;;;;;;;7.27;6.67;;;19.40;70.60;;;;;;5074413;28;20482;-49
2021/06/08 01:38:50;;;;;;;13.67;7.00;;;19.20;70.40;;;;;;5073858;28;20437;-49
2021/06/08 01:41:19;;;;;;;9.97;6.13;;;19.40;70.70;;;;;;5074172;28;20551;-47
2021/06/08 01:43:46;;;;;;;7.10;6.50;;;19.40;70.80;;;;;;5074449;28;20445;-47
2021/06/08 01:46:14;;;;;;;7.30;6.70;;;19.40;71.00;;;;;;5074355;28;20430;-45
2021/06/08 01:48:40;;;;;;;8.10;7.30;;;19.30;71.20;;;;;;5073869;28;21007;-48
2021/06/08 01:51:25;;;;;;;10.67;8.47;;;19.30;71.10;;;;;;5074017;28;20491;-49
2021/06/08 01:54:03;;;;;;;7.83;7.13;;;19.30;71.40;;;;;;5073988;28;20989;-48
2021/06/08 01:56:32;;;;;;;7.10;6.43;;;19.30;71.50;;;;;;5074067;28;20431;-46
2021/06/08 01:59:07;;;;;;;9.33;7.40;;;18.80;71.00;;;;;;5072339;28;20585;-46
2021/06/08 02:01:44;;;;;;;8.10;7.20;;;19.20;71.80;;;;;;5073811;28;20462;-48
2021/06/08 02:04:17;;;;;;;8.63;7.73;;;19.20;72.00;;;;;;5073381;28;20436;-47
2021/06/08 02:06:49;;;;;;;7.50;6.77;;;19.10;72.00;;;;;;5074403;28;20443;-49
2021/06/08 02:09:23;;;;;;;8.50;7.70;;;19.00;72.10;;;;;;5073413;28;20524;-47
2021/06/08 02:11:57;;;;;;;9.67;7.63;;;19.10;72.60;;;;;;5073679;28;20431;-47
2021/06/08 02:14:26;;;;;;;7.60;7.00;;;19.00;72.60;;;;;;5073629;28;20480;-47
2021/06/08 02:16:57;;;;;;;9.07;6.63;;;19.60;73.50;;;;;;5073418;28;20959;-47
2021/06/08 02:19:25;;;;;;;8.50;7.57;;;19.00;72.80;;;;;;5072979;28;20715;-48
2021/06/08 02:21:56;;;;;;;8.30;7.60;;;18.80;72.80;;;;;;5073388;28;20534;-47
2021/06/08 02:24:25;;;;;;;8.30;7.50;;;19.00;73.10;;;;;;5073308;28;20948;-47
2021/06/08 02:26:56;;;;;;;8.67;7.77;;;19.00;73.20;;;;;;5071843;28;20453;-47
2021/06/08 02:29:24;;;;;;;10.03;7.80;;;19.10;73.40;;;;;;5072582;28;20443;-47
2021/06/08 02:31:51;;;;;;;8.80;7.87;;;19.00;73.30;;;;;;5073087;28;20434;-46
2021/06/08 02:34:19;;;;;;;8.23;7.47;;;18.90;73.30;;;;;;5072210;28;20477;-47
2021/06/08 02:36:46;;;;;;;8.50;7.70;;;19.10;73.50;;;;;;5072831;28;20440;-48
2021/06/08 02:39:13;;;;;;;8.33;7.53;;;19.10;73.40;;;;;;5073384;28;20436;-47
2021/06/08 02:41:42;;;;;;;9.20;8.17;;;18.80;73.00;;;;;;5072906;28;20422;-47
2021/06/08 02:44:09;;;;;;;8.23;7.40;;;18.70;72.90;;;;;;5072807;28;20435;-49
2021/06/08 02:46:36;;;;;;;8.50;7.67;;;18.70;73.10;;;;;;5072808;28;20435;-47
2021/06/08 02:49:05;;;;;;;9.63;8.30;;;18.60;72.90;;;;;;5072373;28;20448;-47
2021/06/08 02:51:32;;;;;;;11.90;7.97;;;18.90;73.30;;;;;;5072573;28;20515;-47
2021/06/08 02:53:59;;;;;;;10.30;8.13;;;18.90;73.30;;;;;;5072773;28;21168;-47
2021/06/08 02:56:25;;;;;;;8.87;7.93;;;18.80;73.50;;;;;;5072501;28;20477;-47
2021/06/08 02:58:54;;;;;;;8.93;8.23;;;18.70;73.40;;;;;;5072201;28;20445;-47
2021/06/08 03:01:21;;;;;;;8.47;7.60;;;18.90;73.70;;;;;;5072565;28;20448;-46
2021/06/08 03:03:51;;;;;;;9.30;8.47;;;18.80;73.70;;;;;;5072700;28;20435;-47
2021/06/08 03:06:22;;;;;;;7.70;7.00;;;19.10;74.20;;;;;;5072463;28;20925;-47
2021/06/08 03:08:55;;;;;;;11.53;7.77;;;18.50;73.50;;;;;;5071908;28;20441;-46
2021/06/08 03:11:26;;;;;;;8.20;7.40;;;18.70;73.90;;;;;;5072337;28;20876;-46
2021/06/08 03:13:55;;;;;;;8.67;7.73;;;18.70;74.10;;;;;;5072176;28;20559;-48
2021/06/08 03:16:25;;;;;;;9.13;8.33;;;19.00;74.50;;;;;;5072294;28;20431;-47
2021/06/08 03:18:54;;;;;;;10.00;9.10;;;18.50;74.00;;;;;;5071741;28;20432;-48
2021/06/08 03:21:26;;;;;;;9.33;8.43;;;18.70;74.30;;;;;;5071930;28;20452;-47
2021/06/08 03:23:56;;;;;;;9.97;9.13;;;18.90;74.80;;;;;;5071965;28;20521;-48
2021/06/08 03:26:24;;;;;;;8.60;7.80;;;18.90;74.70;;;;;;5071979;28;20451;-47
2021/06/08 03:28:54;;;;;;;8.70;8.00;;;18.90;74.70;;;;;;5071805;28;20777;-47
2021/06/08 03:31:21;;;;;;;9.67;8.30;;;18.80;74.50;;;;;;5071870;28;20457;-48
2021/06/08 03:33:49;;;;;;;9.53;8.63;;;19.00;74.90;;;;;;5071836;28;20483;-48
2021/06/08 03:36:16;;;;;;;8.93;8.13;;;19.00;75.00;;;;;;5071971;28;20586;-48
2021/06/08 03:38:44;;;;;;;9.10;8.20;;;19.00;75.00;;;;;;5071764;28;20779;-47
2021/06/08 03:41:11;;;;;;;13.40;9.17;;;19.10;75.00;;;;;;5071795;28;20481;-47
2021/06/08 03:43:38;;;;;;;8.83;8.07;;;19.00;75.10;;;;;;5071786;28;20439;-48
2021/06/08 03:46:06;;;;;;;9.47;8.47;;;19.10;75.30;;;;;;5071746;28;20432;-48
2021/06/08 03:48:33;;;;;;;9.10;8.40;;;18.90;75.00;;;;;;5071536;28;20975;-48
2021/06/08 03:51:00;;;;;;;9.97;9.07;;;19.20;75.70;;;;;;5071696;28;20469;-49
2021/06/08 03:53:26;;;;;;;9.20;8.30;;;19.10;75.50;;;;;;5073019;28;20479;-48
2021/06/08 03:55:53;;;;;;;9.50;8.60;;;18.80;75.10;;;;;;5071637;28;20967;-47
2021/06/08 03:58:21;;;;;;;10.43;9.47;;;19.40;76.10;;;;;;5071572;28;20437;-47
2021/06/08 04:00:50;;;;;;;9.43;8.53;;;19.00;75.70;;;;;;5072293;28;20459;-47
2021/06/08 04:03:19;;;;;;;10.83;9.80;;;19.30;75.90;;;;;;5072033;28;20455;-47
2021/06/08 04:05:47;;;;;;;12.80;9.60;;;18.90;75.50;;;;;;5071757;28;20918;-46
2021/06/08 04:08:13;;;;;;;9.67;8.77;;;19.40;76.10;;;;;;5071254;28;20458;-48
2021/06/08 04:10:40;;;;;;;10.80;9.37;;;19.10;75.70;;;;;;5071330;28;21145;-48
2021/06/08 04:13:07;;;;;;;10.43;9.43;;;19.40;75.90;;;;;;5071460;28;20469;-47
2021/06/08 04:15:35;;;;;;;13.10;9.13;;;19.00;75.40;;;;;;5071363;28;20945;-47
2021/06/08 04:18:02;;;;;;;9.83;8.83;;;19.90;76.30;;;;;;5069737;28;20453;-48
2021/06/08 04:20:30;;;;;;;11.50;9.60;;;19.90;76.20;;;;;;5071172;28;20463;-48
2021/06/08 04:22:59;;;;;;;10.17;9.30;;;19.70;75.60;;;;;;5071547;28;20535;-48
2021/06/08 04:25:27;;;;;;;9.60;8.70;;;20.20;75.90;;;;;;5071184;28;20465;-48
2021/06/08 04:27:54;;;;;;;11.37;9.70;;;20.20;75.70;;;;;;5072195;28;20434;-48
2021/06/08 04:30:21;;;;;;;13.40;9.90;;;20.00;75.30;;;;;;5073465;28;20514;-49
2021/06/08 04:32:48;;;;;;;11.00;9.90;;;20.20;75.50;;;;;;5075134;28;20431;-48
2021/06/08 04:35:16;;;;;;;9.90;8.70;;;20.20;75.30;;;;;;5075143;28;20433;-48
2021/06/08 04:37:45;;;;;;;10.80;9.90;;;20.40;75.50;;;;;;5075127;28;20476;-49
2021/06/08 04:40:13;;;;;;;10.73;9.73;;;20.40;75.40;;;;;;5073591;28;20493;-47
2021/06/08 04:42:44;;;;;;;14.03;10.10;;;20.50;75.50;;;;;;5075094;28;20425;-48
2021/06/08 04:45:11;;;;;;;11.97;9.33;;;20.00;74.80;;;;;;5075233;28;20448;-49
2021/06/08 04:47:38;;;;;;;12.97;9.37;;;20.60;75.30;;;;;;5074875;28;20439;-47
2021/06/08 04:50:06;;;;;;;11.73;9.27;;;20.70;75.40;;;;;;5089467;22;20938;-51
2021/06/08 04:52:32;;;;;;;9.73;8.83;;;20.70;75.70;;;;;;5033451;28;20489;-51
2021/06/08 04:54:59;;;;;;;10.57;9.57;;;20.80;75.50;;;;;;5033306;28;20786;-50
2021/06/08 04:57:26;;;;;;;9.83;8.90;;;20.90;75.40;;;;;;5032959;28;20916;-51
2021/06/08 04:59:57;;;;;;;11.23;9.50;;;20.90;75.60;;;;;;5032687;28;20460;-50
2021/06/08 05:02:32;;;;;;;9.53;8.73;;;21.00;75.70;;;;;;5033055;28;20536;-51
2021/06/08 05:05:01;;;;;;;9.90;9.00;;;21.20;76.00;;;;;;5032877;28;20906;-51
2021/06/08 05:07:30;;;;;;;12.37;9.20;;;21.20;75.90;;;;;;5032460;28;20540;-51
2021/06/08 05:10:00;;;;;;;11.53;9.50;;;21.40;76.10;;;;;;5032050;28;20510;-50
2021/06/08 05:12:28;;;;;;;14.07;10.13;;;21.20;75.70;;;;;;5032817;28;20437;-51
2021/06/08 05:14:56;;;;;;;9.90;9.00;;;21.30;75.70;;;;;;5032370;28;20558;-51
2021/06/08 05:17:25;;;;;;;10.13;9.23;;;21.50;75.80;;;;;;5032253;28;20525;-50
2021/06/08 05:19:53;;;;;;;10.40;9.30;;;21.50;75.60;;;;;;5032159;28;20803;-51
2021/06/08 05:22:22;;;;;;;12.70;9.43;;;21.50;75.60;;;;;;5032521;28;20809;-51
2021/06/08 05:24:50;;;;;;;10.17;9.13;;;21.60;75.60;;;;;;5032271;28;20443;-51
2021/06/08 05:27:18;;;;;;;11.17;10.07;;;21.60;75.60;;;;;;5032402;28;20791;-51
2021/06/08 05:29:44;;;;;;;10.20;8.53;;;21.60;75.50;;;;;;5030240;28;20461;-51
2021/06/08 05:32:12;;;;;;;12.60;8.83;;;21.50;75.10;;;;;;5032093;28;20585;-51
2021/06/08 05:34:41;;;;;;;10.90;9.80;;;21.80;74.90;;;;;;5032064;28;20505;-51
2021/06/08 05:37:09;;;;;;;10.97;9.87;;;22.00;74.90;;;;;;5032316;28;20764;-51
2021/06/08 05:39:36;;;;;;;11.40;9.50;;;22.10;74.20;;;;;;5030498;28;20958;-51
2021/06/08 05:42:03;;;;;;;10.60;9.57;;;22.20;73.90;;;;;;5031616;28;20912;-51
2021/06/08 05:44:30;;;;;;;10.40;8.33;;;22.30;73.50;;;;;;5031701;28;20538;-51
2021/06/08 05:46:57;;;;;;;9.70;8.80;;;22.50;73.10;;;;;;5031599;28;20440;-51
2021/06/08 05:49:23;;;;;;;8.90;8.10;;;22.50;72.40;;;;;;5031415;28;20466;-51
2021/06/08 05:51:50;;;;;;;9.60;8.10;;;22.70;72.20;;;;;;5031617;28;20474;-51
2021/06/08 05:54:17;;;;;;;10.10;9.10;;;22.80;71.70;;;;;;5031709;28;20490;-52
2021/06/08 05:56:44;;;;;;;9.23;8.27;;;23.00;71.00;;;;;;5031619;28;20522;-52
2021/06/08 05:59:14;;;;;;;10.83;9.17;;;23.20;71.30;;;;;;5030258;28;20533;-51
2021/06/08 06:01:42;;;;;;;11.23;8.20;;;23.40;70.90;;;;;;5031810;28;20547;-51
2021/06/08 06:04:11;;;;;;;10.53;8.60;;;23.50;70.60;;;;;;5031894;28;20916;-51
2021/06/08 06:06:39;;;;;;;12.33;8.50;;;23.70;69.70;;;;;;5031200;28;20490;-52
2021/06/08 06:09:05;;;;;;;9.63;8.67;;;23.90;69.50;;;;;;5031676;28;20428;-52
2021/06/08 06:11:32;;;;;;;8.50;7.63;;;24.00;69.10;;;;;;5031598;28;20458;-52
2021/06/08 06:14:01;;;;;;;8.80;8.00;;;24.10;68.60;;;;;;5031460;28;20484;-51
2021/06/08 06:16:30;;;;;;;8.20;7.37;;;24.10;68.60;;;;;;5031219;28;20456;-52
2021/06/08 06:19:00;;;;;;;8.73;7.83;;;24.00;68.40;;;;;;5030962;28;20479;-51
2021/06/08 06:21:27;;;;;;;11.00;8.33;;;23.80;68.20;;;;;;5031299;28;20462;-52
2021/06/08 06:23:53;;;;;;;9.70;7.43;;;23.90;68.60;;;;;;5031426;28;20490;-52
2021/06/08 06:26:20;;;;;;;9.20;8.20;;;23.90;68.90;;;;;;5031292;28;20425;-52
2021/06/08 06:28:46;;;;;;;13.40;8.00;;;23.90;69.30;;;;;;5030624;28;20499;-51
2021/06/08 06:31:13;;;;;;;8.33;7.43;;;23.90;69.50;;;;;;5030918;28;20572;-52
2021/06/08 06:33:42;;;;;;;10.27;7.57;;;23.90;69.60;;;;;;5031051;28;20844;-51
2021/06/08 06:36:11;;;;;;;10.03;8.13;;;23.80;69.50;;;;;;5031214;28;20599;-51
2021/06/08 06:38:38;;;;;;;8.57;7.70;;;23.90;69.60;;;;;;5030839;28;20442;-51
2021/06/08 06:41:07;;;;;;;9.63;8.60;;;23.90;69.70;;;;;;5030601;28;20608;-51
2021/06/08 06:43:37;;;;;;;8.43;7.73;;;23.90;69.70;;;;;;5030790;28;20455;-51
2021/06/08 06:46:03;;;;;;;11.20;7.97;;;24.00;69.60;;;;;;5030885;28;20519;-52
2021/06/08 06:48:30;;;;;;;8.47;7.77;;;24.00;69.60;;;;;;5030500;28;20434;-51
2021/06/08 06:50:56;;;;;;;8.27;7.47;;;24.00;70.00;;;;;;5030257;28;20503;-51
2021/06/08 06:53:24;;;;;;;10.20;7.53;;;24.00;69.90;;;;;;5029871;28;20756;-53
2021/06/08 06:55:52;;;;;;;9.03;8.13;;;23.90;70.20;;;;;;5030410;28;20543;-53
2021/06/08 06:58:18;;;;;;;11.17;7.43;;;23.70;70.40;;;;;;5030579;28;20784;-52
2021/06/08 07:00:45;;;;;;;8.53;7.70;;;23.70;70.60;;;;;;5031079;28;20508;-51
2021/06/08 07:03:14;;;;;;;11.07;7.60;;;23.70;71.00;;;;;;5029106;28;20465;-51
2021/06/08 07:05:42;;;;;;;14.90;8.10;;;23.60;71.20;;;;;;5030759;28;20444;-51
2021/06/08 07:08:09;;;;;;;9.23;8.33;;;23.60;71.60;;;;;;5030303;28;20460;-51
2021/06/08 07:10:37;;;;;;;11.10;8.60;;;23.50;71.80;;;;;;5030248;28;20474;-52
2021/06/08 07:13:06;;;;;;;11.67;8.17;;;23.40;71.60;;;;;;5030308;28;20934;-51
2021/06/08 07:15:33;;;;;;;8.90;8.00;;;23.60;71.90;;;;;;5030040;28;20441;-51
2021/06/08 07:18:00;;;;;;;8.50;7.57;;;23.60;71.80;;;;;;5029828;28;20428;-51
2021/06/08 07:20:28;;;;;;;8.67;7.57;;;23.60;71.80;;;;;;5030104;28;20520;-51
2021/06/08 07:22:57;;;;;;;7.10;6.50;;;23.50;72.00;;;;;;5029919;28;20445;-51
2021/06/08 07:25:25;;;;;;;8.20;7.40;;;23.70;71.60;;;;;;5029663;28;20432;-52
2021/06/08 07:27:54;;;;;;;16.03;7.90;;;23.70;71.20;;;;;;5030320;28;20810;-52
2021/06/08 07:30:21;;;;;;;10.00;8.00;;;23.70;70.80;;;;;;5029897;28;20455;-52
2021/06/08 07:33:02;;;;;;;8.03;7.10;;;23.70;70.70;;;;;;5030056;28;20510;-52
2021/06/08 07:35:32;;;;;;;8.70;6.47;;;23.70;71.00;;;;;;5028672;28;20485;-52
2021/06/08 07:38:07;;;;;;;7.87;7.17;;;23.70;69.60;;;;;;5030042;28;20761;-52
2021/06/08 07:40:38;;;;;;;8.37;7.57;;;23.70;69.30;;;;;;5030090;28;20544;-52
2021/06/08 07:43:09;;;;;;;7.77;7.03;;;23.90;69.80;;;;;;5030039;28;20439;-52
2021/06/08 07:45:39;;;;;;;9.10;7.17;;;23.90;70.50;;;;;;5028489;28;20459;-52
2021/06/08 07:48:09;;;;;;;8.70;6.60;;;23.90;70.00;;;;;;5029775;28;20431;-52
2021/06/08 07:50:39;;;;;;;7.70;6.23;;;23.90;69.30;;;;;;5029225;28;20866;-52
2021/06/08 07:53:06;;;;;;;13.30;7.00;;;24.00;69.30;;;;;;5029925;28;20533;-52
2021/06/08 07:55:35;;;;;;;7.60;7.00;;;24.00;68.40;;;;;;5029758;28;20451;-51
2021/06/08 07:58:02;;;;;;;7.47;5.47;;;24.00;67.40;;;;;;5029278;28;20427;-50
2021/06/08 08:00:30;;;;;;;7.93;5.40;;;24.00;66.10;;;;;;5029591;28;20523;-51
2021/06/08 08:03:24;;;;;;;7.03;6.13;;;23.90;64.10;;;;;;5028910;28;20445;-50
2021/06/08 08:05:43;;;;;;;6.90;5.10;;;24.00;64.70;;;;;;5029117;28;20445;-50
2021/06/08 08:08:13;;;;;;;5.57;5.00;;;24.10;64.60;;;;;;5028809;28;20441;-52
2021/06/08 08:10:39;;;;;;;7.83;5.60;;;24.10;63.30;;;;;;5030400;28;20533;-51
2021/06/08 08:13:05;;;;;;;8.90;5.43;;;24.10;63.50;;;;;;5029601;28;20540;-51
2021/06/08 08:15:33;;;;;;;7.03;5.57;;;24.20;64.20;;;;;;5029527;28;21018;-51
2021/06/08 08:18:01;;;;;;;10.10;7.00;;;24.30;64.30;;;;;;5028749;28;20781;-51
2021/06/08 08:20:41;;;;;;;9.40;5.73;;;24.30;64.10;;;;;;5029463;28;20467;-51
2021/06/08 08:23:07;;;;;;;9.97;6.23;;;24.30;62.90;;;;;;5030009;28;20462;-51
2021/06/08 08:25:33;;;;;;;6.07;5.47;;;24.10;62.60;;;;;;5028940;28;20438;-51
2021/06/08 08:28:00;;;;;;;8.00;4.80;;;24.30;61.40;;;;;;5029024;28;20760;-52
2021/06/08 08:30:26;;;;;;;8.40;5.80;;;24.20;62.00;;;;;;5029594;28;20474;-50
2021/06/08 08:32:53;;;;;;;6.13;5.57;;;24.30;62.20;;;;;;5029724;28;20440;-52
2021/06/08 08:35:20;;;;;;;6.53;5.30;;;24.30;62.60;;;;;;5029658;28;20478;-52
2021/06/08 08:37:46;;;;;;;6.33;5.83;;;24.30;61.60;;;;;;5029859;28;20477;-52
2021/06/08 08:40:12;;;;;;;5.57;5.07;;;24.30;61.50;;;;;;5029238;28;20463;-51
2021/06/08 08:42:39;;;;;;;6.40;5.53;;;24.40;61.50;;;;;;5029474;28;20445;-51
2021/06/08 08:45:06;;;;;;;9.33;5.50;;;24.40;61.90;;;;;;5029175;28;20718;-51
2021/06/08 08:47:33;;;;;;;6.70;6.13;;;24.40;62.30;;;;;;5029905;28;20501;-54
2021/06/08 08:50:01;;;;;;;6.87;6.17;;;24.40;62.90;;;;;;5029395;28;20473;-52
2021/06/08 08:52:27;;;;;;;7.20;5.97;;;24.50;62.70;;;;;;5030011;28;20933;-51
2021/06/08 08:54:54;;;;;;;6.73;6.00;;;24.50;61.80;;;;;;5029975;28;21045;-51
2021/06/08 08:57:21;;;;;;;7.03;5.97;;;24.40;62.00;;;;;;5029522;28;20529;-52
2021/06/08 08:59:48;;;;;;;6.33;5.70;;;24.40;63.00;;;;;;5029099;28;21003;-51
2021/06/08 09:02:14;;;;;;;14.23;6.80;;;24.40;63.10;;;;;;5029419;28;20465;-51
2021/06/08 09:04:40;;;;;;;6.43;5.83;;;24.50;63.30;;;;;;5029251;28;20941;-51
2021/06/08 09:07:08;;;;;;;8.93;6.20;;;24.50;62.60;;;;;;5029110;28;20444;-51
2021/06/08 09:09:34;;;;;;;6.33;5.83;;;24.50;62.40;;;;;;5028569;28;20488;-51
2021/06/08 09:12:04;;;;;;;8.97;6.20;;;24.60;62.80;;;;;;5028709;28;20435;-51
2021/06/08 09:14:30;;;;;;;7.43;5.73;;;24.60;62.60;;;;;;5030190;28;20494;-51
2021/06/08 09:16:56;;;;;;;6.03;4.93;;;24.40;60.70;;;;;;5032818;28;20427;-51
2021/06/08 09:19:25;;;;;;;6.20;5.70;;;24.70;59.60;;;;;;5031754;28;20956;-52
2021/06/08 09:21:55;;;;;;;10.30;5.70;;;24.60;59.60;;;;;;5032662;28;20458;-51
2021/06/08 09:24:24;;;;;;;6.73;6.17;;;24.80;60.30;;;;;;5032159;28;20490;-52
2021/06/08 09:26:53;;;;;;;5.23;4.73;;;25.00;59.80;;;;;;5032453;28;20731;-52
2021/06/08 09:29:29;;;;;;;5.37;4.87;;;24.90;59.40;;;;;;5031988;28;20511;-51
2021/06/08 09:32:15;;;;;;;15.33;5.83;;;24.90;58.50;;;;;;5032475;28;20478;-51
2021/06/08 09:34:44;;;;;;;7.40;6.03;;;25.00;58.30;;;;;;5032196;28;20514;-51
2021/06/08 09:37:11;;;;;;;9.33;5.40;;;25.00;58.10;;;;;;5031531;28;20500;-51
2021/06/08 09:39:45;;;;;;;6.37;4.80;;;25.00;57.90;;;;;;5031775;28;20435;-51
2021/06/08 09:42:22;;;;;;;5.07;4.63;;;25.10;57.40;;;;;;5031308;28;20564;-51
2021/06/08 09:44:48;;;;;;;6.17;4.97;;;25.30;57.60;;;;;;5032000;28;20432;-51
2021/06/08 09:47:26;;;;;;;7.43;5.10;;;25.30;57.80;;;;;;5031842;28;20465;-53
2021/06/08 09:49:52;;;;;;;8.07;5.60;;;25.40;57.70;;;;;;5031208;28;20481;-52
2021/06/08 09:52:20;;;;;;;7.43;4.77;;;25.50;57.80;;;;;;5031952;28;20436;-52
2021/06/08 09:54:50;;;;;;;10.57;5.23;;;25.40;57.90;;;;;;5029989;28;20477;-52
2021/06/08 09:57:20;;;;;;;5.53;5.03;;;25.40;57.80;;;;;;5032124;28;20433;-52
2021/06/08 09:59:49;;;;;;;5.97;5.47;;;25.30;57.70;;;;;;5031278;28;21047;-53
2021/06/08 10:02:23;;;;;;;5.77;5.20;;;25.40;57.80;;;;;;5031290;28;20825;-53
2021/06/08 10:04:50;;;;;;;5.43;5.03;;;25.20;57.80;;;;;;5032045;28;20522;-51
2021/06/08 10:07:26;;;;;;;6.10;5.50;;;25.50;57.80;;;;;;5030480;28;20837;-51
2021/06/08 10:10:09;;;;;;;5.50;5.10;;;25.50;57.60;;;;;;5031080;28;20475;-51
2021/06/08 10:12:36;;;;;;;5.63;4.70;;;25.70;57.80;;;;;;5031745;28;20443;-51
2021/06/08 10:15:10;;;;;;;6.50;5.90;;;25.60;57.70;;;;;;5031787;28;20489;-51
2021/06/08 10:17:38;;;;;;;7.50;6.00;;;25.90;57.10;;;;;;5031740;28;20439;-52
2021/06/08 10:20:18;;;;;;;5.47;4.83;;;25.90;57.70;;;;;;5031078;28;20505;-52
2021/06/08 10:22:44;;;;;;;6.33;5.10;;;26.00;57.20;;;;;;5030974;28;20449;-52
2021/06/08 10:25:13;;;;;;;5.73;5.20;;;26.00;57.30;;;;;;5030785;28;20532;-52
2021/06/08 10:27:40;;;;;;;6.47;5.33;;;26.10;56.80;;;;;;5031198;28;20794;-52
2021/06/08 10:30:08;;;;;;;5.60;5.10;;;26.20;57.60;;;;;;5030981;28;20451;-53
2021/06/08 10:32:35;;;;;;;5.60;5.17;;;26.30;56.90;;;;;;5031051;28;20467;-53
2021/06/08 10:35:01;;;;;;;5.53;5.10;;;26.30;56.90;;;;;;5029609;28;20475;-51
2021/06/08 10:37:27;;;;;;;5.60;5.10;;;26.10;56.30;;;;;;5030795;28;20640;-51
2021/06/08 10:39:55;;;;;;;10.07;6.30;;;26.40;56.70;;;;;;5030343;28;20455;-51
2021/06/08 10:42:23;;;;;;;7.67;5.37;;;26.50;56.30;;;;;;5031123;28;20448;-52
2021/06/08 10:44:49;;;;;;;5.70;5.20;;;26.60;56.60;;;;;;5031015;28;20439;-52
2021/06/08 10:47:23;;;;;;;6.37;5.87;;;26.50;56.70;;;;;;5030311;28;20432;-52
2021/06/08 10:49:53;;;;;;;6.53;5.00;;;26.60;56.60;;;;;;5030183;28;20875;-53
2021/06/08 10:52:19;;;;;;;6.17;5.67;;;26.60;57.10;;;;;;5030532;28;20443;-52
2021/06/08 10:54:48;;;;;;;8.03;6.17;;;26.50;57.10;;;;;;5030427;28;20475;-51
2021/06/08 10:57:16;;;;;;;6.33;5.73;;;26.50;57.20;;;;;;5030781;28;20984;-51
2021/06/08 10:59:45;;;;;;;5.93;5.47;;;26.60;56.80;;;;;;5029908;28;20497;-51
2021/06/08 11:02:12;;;;;;;6.10;5.50;;;26.40;56.20;;;;;;5031070;28;20748;-52
2021/06/08 11:04:51;;;;;;;6.37;5.87;;;26.40;56.40;;;;;;5030721;28;20431;-52
2021/06/08 11:07:51;;;;;;;7.83;5.87;;;26.40;56.10;;;;;;5030946;28;20995;-52
2021/06/08 11:10:51;;;;;;;6.10;5.57;;;26.40;56.00;;;;;;5030510;28;20461;-51
2021/06/08 11:13:42;;;;;;;6.10;5.50;;;26.40;56.40;;;;;;5030454;28;20431;-51
2021/06/08 11:16:34;;;;;;;9.73;5.90;;;26.50;57.20;;;;;;5030619;28;20513;-51
2021/06/08 11:19:01;;;;;;;6.40;5.80;;;26.50;57.40;;;;;;5029906;28;20458;-52
2021/06/08 11:21:30;;;;;;;5.50;5.10;;;26.50;57.40;;;;;;5029744;28;20547;-51
2021/06/08 11:23:56;;;;;;;8.63;5.60;;;26.30;57.30;;;;;;5030083;28;20488;-52
2021/06/08 11:26:49;;;;;;;5.63;5.10;;;26.50;57.30;;;;;;5029955;28;20909;-52
2021/06/08 11:29:48;;;;;;;7.60;5.37;;;26.60;57.10;;;;;;5029864;28;20967;-51
2021/06/08 11:32:44;;;;;;;7.07;6.40;;;26.60;56.60;;;;;;5029968;28;20457;-52
2021/06/08 11:35:19;;;;;;;5.77;5.20;;;26.60;56.70;;;;;;5029257;28;20475;-52
2021/06/08 11:37:47;;;;;;;6.43;5.60;;;26.60;56.50;;;;;;5029234;28;20492;-51
2021/06/08 11:40:53;;;;;;;7.33;5.53;;;26.60;56.70;;;;;;5029433;28;20466;-53
2021/06/08 11:43:56;;;;;;;7.20;5.40;;;26.80;56.50;;;;;;5030017;28;20543;-51
2021/06/08 11:46:50;;;;;;;6.03;5.00;;;27.00;56.20;;;;;;5029484;28;20439;-52
2021/06/08 11:49:19;;;;;;;8.00;4.90;;;26.80;55.90;;;;;;5029194;28;20518;-51
2021/06/08 11:52:17;;;;;;;6.13;5.63;;;26.90;56.40;;;;;;5029503;28;20498;-51
2021/06/08 11:54:49;;;;;;;5.70;5.13;;;27.10;55.60;;;;;;5029677;28;20482;-51
2021/06/08 11:57:33;;;;;;;7.57;5.00;;;27.20;55.30;;;;;;5029687;28;20951;-51
2021/06/08 12:00:00;;;;;;;5.53;5.07;;;27.20;55.10;;;;;;5029343;28;20502;-51
2021/06/08 12:02:29;;;;;;;7.20;6.20;;;27.10;55.60;;;;;;5029859;28;20835;-52
2021/06/08 12:05:20;;;;;;;7.10;5.67;;;27.10;55.50;;;;;;5029532;28;20435;-52
2021/06/08 12:07:49;;;;;;;5.37;4.97;;;27.10;55.40;;;;;;5029388;28;20482;-51
2021/06/08 12:10:27;;;;;;;5.90;5.33;;;26.90;54.60;;;;;;5029239;28;20463;-52
2021/06/08 12:12:53;;;;;;;8.13;5.60;;;27.00;54.50;;;;;;5029550;28;20428;-52
2021/06/08 12:15:22;;;;;;;6.37;5.57;;;26.90;54.80;;;;;;5029245;28;20503;-52
2021/06/08 12:18:03;;;;;;;6.20;5.60;;;27.00;54.60;;;;;;5029330;28;20440;-52
2021/06/08 12:20:31;;;;;;;5.77;5.27;;;27.00;54.70;;;;;;5029691;28;20532;-51
2021/06/08 12:22:57;;;;;;;6.27;5.43;;;26.90;54.90;;;;;;5029624;28;20433;-51
2021/06/08 12:25:24;;;;;;;5.40;4.83;;;26.90;54.80;;;;;;5029535;28;20680;-51
2021/06/08 12:27:50;;;;;;;6.23;5.13;;;26.80;54.30;;;;;;5029961;28;20463;-51
2021/06/08 12:30:20;;;;;;;8.30;5.33;;;26.70;54.50;;;;;;5028896;28;20558;-51
2021/06/08 12:32:53;;;;;;;6.13;5.30;;;26.40;54.50;;;;;;5029309;28;20431;-52
2021/06/08 12:35:22;;;;;;;5.53;4.90;;;26.70;54.50;;;;;;5027681;28;20474;-52
2021/06/08 12:37:50;;;;;;;6.03;5.27;;;26.60;54.40;;;;;;5029140;28;20435;-51
2021/06/08 12:40:18;;;;;;;7.87;5.30;;;26.50;54.60;;;;;;5028741;28;20835;-52
2021/06/08 12:42:45;;;;;;;5.60;5.10;;;26.80;54.60;;;;;;5027769;28;20451;-52
2021/06/08 12:45:12;;;;;;;5.93;5.47;;;26.90;54.00;;;;;;5029330;28;20641;-51
2021/06/08 12:47:38;;;;;;;6.43;5.20;;;27.10;53.70;;;;;;5028917;28;20435;-52
2021/06/08 12:50:09;;;;;;;6.10;5.00;;;27.20;53.20;;;;;;5031362;28;20550;-51
2021/06/08 12:52:35;;;;;;;5.37;4.83;;;27.40;53.10;;;;;;5033081;28;20479;-51
2021/06/08 12:55:11;;;;;;;7.50;5.30;;;27.40;53.50;;;;;;5032442;28;20622;-51
2021/06/08 12:57:37;;;;;;;5.90;5.40;;;27.50;53.30;;;;;;5032864;28;20441;-51